Bahia De Getares — EA5074 — position and weather

sailwx.info

Track history (hours):
 
Tides and Currents Weather Stations Pressure Air Temp Water Temp Dewpoint Dewpoint Depression Visibility Wind Speed Wind Dir Waves Ship Positions

Bahia De Getares

Last reported at 2017-Nov-15 23:55 UTC. Time now 2017-Nov-19 01:30 UTC.
Position N 36°02' W 005°23'.

Length 23 m.

Type: Ship. MMSI: 225985074.

Date/timePositionNaut miles runAvg speedWind from/ knotsBaromVisibWave heightAir tempDewpointWater temp
2017-Nov-15 23:55N 36°02' W 005°23'4 8.6
2017-Nov-15 23:30N 35°58' W 005°21'3 6.6
2017-Nov-15 23:00N 35°55' W 005°20'0 0.0
2017-Nov-15 22:30N 35°55' W 005°20'0 0.0
2017-Nov-15 22:00N 35°55' W 005°20'0 0.2
2017-Nov-15 21:30N 35°55' W 005°20'0 0.5
2017-Nov-15 21:00N 35°55' W 005°19'1 2.6
2017-Nov-15 20:30N 35°56' W 005°21'  
2017-Nov-12 16:28N 36°04' W 005°22'2 4.2
2017-Nov-12 15:55N 36°04' W 005°19'0 0.8
2017-Nov-12 15:30N 36°03' W 005°19'7 8.5
2017-Nov-12 14:42N 36°08' W 005°25'3 0.1
2017-Nov-11 21:40N 36°06' W 005°25'0 0.3
2017-Nov-11 21:26N 36°06' W 005°25'0 0.1
2017-Nov-11 20:30N 36°06' W 005°25'  
2017-Nov-07 13:26N 36°10' W 005°24'0 0.4
2017-Nov-07 12:59N 36°10' W 005°24'0 0.0
2017-Nov-07 12:23N 36°10' W 005°24'0 0.0
2017-Nov-07 12:00N 36°10' W 005°24'0 0.9
2017-Nov-07 11:29N 36°10' W 005°24'4 8.4
2017-Nov-07 11:00N 36°06' W 005°25'2 3.6
2017-Nov-07 10:30N 36°08' W 005°25'1 0.5
2017-Nov-07 08:51N 36°08' W 005°25'  
Track history (hours):
 
Tides and Currents Weather Stations Pressure Air Temp Water Temp Dewpoint Dewpoint Depression Visibility Wind Speed Wind Dir Waves Ship Positions

Bahia De Getares

Last reported at 2017-Nov-15 23:55 UTC. Time now 2017-Nov-19 01:30 UTC.
Position N 36°02' W 005°23'.

Length 23 m.

Type: Ship. MMSI: 225985074.

Date/timePositionNaut miles runAvg speedWind from/ knotsBaromVisibWave heightAir tempDewpointWater temp
2017-Nov-15 23:55N 36°02' W 005°23'4 8.6
2017-Nov-15 23:30N 35°58' W 005°21'3 6.6
2017-Nov-15 23:00N 35°55' W 005°20'0 0.0
2017-Nov-15 22:30N 35°55' W 005°20'0 0.0
2017-Nov-15 22:00N 35°55' W 005°20'0 0.2
2017-Nov-15 21:30N 35°55' W 005°20'0 0.5
2017-Nov-15 21:00N 35°55' W 005°19'1 2.6
2017-Nov-15 20:30N 35°56' W 005°21'  
2017-Nov-12 16:28N 36°04' W 005°22'2 4.2
2017-Nov-12 15:55N 36°04' W 005°19'0 0.8
2017-Nov-12 15:30N 36°03' W 005°19'7 8.5
2017-Nov-12 14:42N 36°08' W 005°25'3 0.1
2017-Nov-11 21:40N 36°06' W 005°25'0 0.3
2017-Nov-11 21:26N 36°06' W 005°25'0 0.1
2017-Nov-11 20:30N 36°06' W 005°25'  
2017-Nov-07 13:26N 36°10' W 005°24'0 0.4
2017-Nov-07 12:59N 36°10' W 005°24'0 0.0
2017-Nov-07 12:23N 36°10' W 005°24'0 0.0
2017-Nov-07 12:00N 36°10' W 005°24'0 0.9
2017-Nov-07 11:29N 36°10' W 005°24'4 8.4
2017-Nov-07 11:00N 36°06' W 005°25'2 3.6
2017-Nov-07 10:30N 36°08' W 005°25'1 0.5
2017-Nov-07 08:51N 36°08' W 005°25'  

Dump ship's entire track history